UPS4469 KRDU-KLAS
Flight info
| Callsign | UPS4469 |
|---|---|
| Flight time | N/A |
| Altitude | 30000 |
| Route | SHPRD4 SHPRD COMDY METWO BNA BETIE TWITS TUL CIM/N0489F320 DICEE TYEGR CHOWW4 |
| Aircraft | MD11/H-SDE1E2E3FGHIJ2J3J4J5M1RWXY/LB1D1 |
Departure
| Time | 2026-05-07 01:41 |
|---|---|
| Airport | Raleigh-Durham International Airport (KRDU) |
Arrival
| Time | N/A |
|---|---|
| Airport | Harry Reid International Airport (KLAS) |
| Time | Latitude | Longitude | Altitude | Speed | Heading |
|---|---|---|---|---|---|
| 2026-05-07 01:19 | 35.88806 | -78.77949 | 421 ft | 0 kts | 135° |
| 2026-05-07 01:27 | 35.88815 | -78.77960 | 415 ft | 2 kts | 135° |
| 2026-05-07 01:27 | 35.88828 | -78.77972 | 424 ft | 2 kts | 157° |
| 2026-05-07 01:28 | 35.88844 | -78.77978 | 415 ft | 2 kts | 174° |
| 2026-05-07 01:28 | 35.88860 | -78.77979 | 418 ft | 2 kts | 189° |
| 2026-05-07 01:28 | 35.88875 | -78.77974 | 415 ft | 2 kts | 206° |
| 2026-05-07 01:28 | 35.88889 | -78.77964 | 414 ft | 2 kts | 223° |
| 2026-05-07 01:29 | 35.88894 | -78.77959 | 414 ft | 0 kts | 223° |
| 2026-05-07 01:35 | 35.88893 | -78.77959 | 414 ft | 1 kts | 223° |
| 2026-05-07 01:36 | 35.88880 | -78.77977 | 415 ft | 5 kts | 228° |
| 2026-05-07 01:36 | 35.88852 | -78.78018 | 418 ft | 8 kts | 230° |
| 2026-05-07 01:36 | 35.88811 | -78.78080 | 419 ft | 11 kts | 231° |
| 2026-05-07 01:36 | 35.88754 | -78.78166 | 419 ft | 15 kts | 229° |
| 2026-05-07 01:37 | 35.88731 | -78.78247 | 425 ft | 6 kts | 293° |
| 2026-05-07 01:37 | 35.88750 | -78.78264 | 424 ft | 2 kts | 340° |
| 2026-05-07 01:37 | 35.88790 | -78.78238 | 420 ft | 13 kts | 42° |
| 2026-05-07 01:37 | 35.88858 | -78.78157 | 421 ft | 13 kts | 44° |
| 2026-05-07 01:38 | 35.88924 | -78.78077 | 417 ft | 13 kts | 46° |
| 2026-05-07 01:38 | 35.88979 | -78.77980 | 420 ft | 14 kts | 66° |
| 2026-05-07 01:38 | 35.89023 | -78.77878 | 418 ft | 13 kts | 51° |
| 2026-05-07 01:38 | 35.89081 | -78.77804 | 416 ft | 11 kts | 44° |
| 2026-05-07 01:39 | 35.89136 | -78.77735 | 419 ft | 12 kts | 45° |
| 2026-05-07 01:39 | 35.89203 | -78.77664 | 420 ft | 12 kts | 26° |
| 2026-05-07 01:39 | 35.89259 | -78.77675 | 420 ft | 6 kts | 322° |
| 2026-05-07 01:39 | 35.89275 | -78.77696 | 428 ft | 1 kts | 313° |
| 2026-05-07 01:40 | 35.89276 | -78.77697 | 427 ft | 1 kts | 313° |
| 2026-05-07 01:40 | 35.89303 | -78.77730 | 423 ft | 11 kts | 316° |
| 2026-05-07 01:40 | 35.89348 | -78.77820 | 424 ft | 8 kts | 266° |
| 2026-05-07 01:40 | 35.89321 | -78.77876 | 425 ft | 8 kts | 231° |
| 2026-05-07 01:41 | 35.89152 | -78.78089 | 425 ft | 75 kts | 225° |
| 2026-05-07 01:41 | 35.88596 | -78.78771 | 424 ft | 147 kts | 224° |
| 2026-05-07 01:41 | 35.87736 | -78.79816 | 521 ft | 189 kts | 224° |
| 2026-05-07 01:41 | 35.86782 | -78.80997 | 1104 ft | 197 kts | 223° |
| 2026-05-07 01:42 | 35.85806 | -78.82115 | 2025 ft | 178 kts | 223° |
| 2026-05-07 01:42 | 35.84988 | -78.83028 | 3251 ft | 152 kts | 224° |
| 2026-05-07 01:42 | 35.84141 | -78.83940 | 3585 ft | 174 kts | 223° |
| 2026-05-07 01:42 | 35.83168 | -78.84962 | 3792 ft | 190 kts | 224° |
| 2026-05-07 01:43 | 35.82146 | -78.86014 | 4204 ft | 192 kts | 224° |
| 2026-05-07 01:43 | 35.81109 | -78.87057 | 4625 ft | 193 kts | 223° |
| 2026-05-07 01:43 | 35.80106 | -78.88145 | 5018 ft | 192 kts | 236° |
| 2026-05-07 01:43 | 35.79604 | -78.89745 | 5179 ft | 217 kts | 266° |
| 2026-05-07 01:44 | 35.79836 | -78.91662 | 5344 ft | 244 kts | 282° |
| 2026-05-07 01:44 | 35.80294 | -78.93756 | 5774 ft | 257 kts | 282° |
| 2026-05-07 01:44 | 35.80706 | -78.95916 | 6494 ft | 260 kts | 279° |
| 2026-05-07 01:44 | 35.81047 | -78.98116 | 7193 ft | 263 kts | 277° |
| 2026-05-07 01:45 | 35.81331 | -79.00350 | 7905 ft | 265 kts | 276° |
| 2026-05-07 01:45 | 35.81574 | -79.02610 | 8635 ft | 267 kts | 275° |
| 2026-05-07 01:45 | 35.81788 | -79.04897 | 9358 ft | 270 kts | 274° |
| 2026-05-07 01:45 | 35.81984 | -79.07215 | 10058 ft | 273 kts | 274° |
| 2026-05-07 01:46 | 35.82172 | -79.09641 | 10245 ft | 295 kts | 274° |
| 2026-05-07 01:46 | 35.82361 | -79.12256 | 10373 ft | 317 kts | 274° |
| 2026-05-07 01:46 | 35.82554 | -79.15025 | 10670 ft | 331 kts | 273° |
| 2026-05-07 01:46 | 35.82748 | -79.17882 | 11027 ft | 333 kts | 273° |
| 2026-05-07 01:47 | 35.82938 | -79.20723 | 11382 ft | 333 kts | 273° |
| 2026-05-07 01:47 | 35.83125 | -79.23570 | 11809 ft | 334 kts | 273° |
| 2026-05-07 01:47 | 35.83310 | -79.26425 | 12522 ft | 336 kts | 273° |
| 2026-05-07 01:47 | 35.83462 | -79.29276 | 13136 ft | 339 kts | 270° |
| 2026-05-07 01:48 | 35.83396 | -79.32192 | 13786 ft | 342 kts | 266° |
| 2026-05-07 01:48 | 35.83206 | -79.35126 | 14405 ft | 343 kts | 264° |
| 2026-05-07 01:48 | 35.82979 | -79.38058 | 15024 ft | 345 kts | 264° |
| 2026-05-07 01:48 | 35.82745 | -79.41004 | 15660 ft | 346 kts | 265° |
| 2026-05-07 01:49 | 35.82511 | -79.43965 | 16269 ft | 347 kts | 265° |
| 2026-05-07 01:49 | 35.82280 | -79.46943 | 16902 ft | 349 kts | 265° |
| 2026-05-07 01:49 | 35.82054 | -79.49884 | 17504 ft | 350 kts | 265° |
| 2026-05-07 01:49 | 35.81764 | -79.52869 | 18108 ft | 352 kts | 263° |
| 2026-05-07 01:50 | 35.81331 | -79.55846 | 18638 ft | 354 kts | 261° |
| 2026-05-07 01:50 | 35.80837 | -79.58825 | 19143 ft | 356 kts | 260° |
| 2026-05-07 01:50 | 35.80325 | -79.61820 | 19623 ft | 358 kts | 260° |
| 2026-05-07 01:50 | 35.79806 | -79.64840 | 20061 ft | 361 kts | 260° |
| 2026-05-07 01:51 | 35.79287 | -79.67879 | 20510 ft | 364 kts | 260° |
| 2026-05-07 01:51 | 35.78767 | -79.70934 | 21012 ft | 366 kts | 260° |
| 2026-05-07 01:51 | 35.78245 | -79.74006 | 21492 ft | 367 kts | 260° |
| 2026-05-07 01:51 | 35.77721 | -79.77098 | 21959 ft | 370 kts | 260° |
| 2026-05-07 01:52 | 35.77192 | -79.80213 | 22438 ft | 372 kts | 260° |
| 2026-05-07 01:52 | 35.76661 | -79.83339 | 22972 ft | 373 kts | 260° |
| 2026-05-07 01:52 | 35.76222 | -79.86485 | 23372 ft | 373 kts | 268° |
| 2026-05-07 01:52 | 35.76279 | -79.89683 | 23768 ft | 375 kts | 274° |
| 2026-05-07 01:53 | 35.76556 | -79.92887 | 24143 ft | 377 kts | 276° |
| 2026-05-07 01:53 | 35.76859 | -79.96103 | 24511 ft | 379 kts | 275° |
| 2026-05-07 01:53 | 35.77127 | -79.99340 | 24870 ft | 381 kts | 275° |
| 2026-05-07 01:53 | 35.77356 | -80.02607 | 25220 ft | 384 kts | 274° |
| 2026-05-07 01:54 | 35.77552 | -80.05848 | 25567 ft | 386 kts | 273° |
| 2026-05-07 01:54 | 35.77733 | -80.09155 | 25905 ft | 388 kts | 273° |
| 2026-05-07 01:54 | 35.77903 | -80.12476 | 26248 ft | 390 kts | 273° |
| 2026-05-07 01:54 | 35.78067 | -80.15817 | 26587 ft | 392 kts | 273° |
| 2026-05-07 01:55 | 35.78229 | -80.19167 | 27071 ft | 390 kts | 272° |
| 2026-05-07 01:55 | 35.78389 | -80.22508 | 27450 ft | 392 kts | 272° |
| 2026-05-07 01:55 | 35.78549 | -80.25867 | 27776 ft | 393 kts | 272° |
| 2026-05-07 01:55 | 35.78708 | -80.29246 | 28097 ft | 396 kts | 272° |
| 2026-05-07 01:56 | 35.78867 | -80.32642 | 28408 ft | 398 kts | 272° |
| 2026-05-07 01:56 | 35.79027 | -80.36061 | 28715 ft | 400 kts | 272° |
| 2026-05-07 01:56 | 35.79186 | -80.39489 | 29029 ft | 402 kts | 272° |
| 2026-05-07 01:56 | 35.79345 | -80.42938 | 29323 ft | 403 kts | 272° |
| 2026-05-07 01:57 | 35.79504 | -80.46396 | 29631 ft | 405 kts | 272° |
| 2026-05-07 01:57 | 35.79663 | -80.49869 | 29904 ft | 408 kts | 272° |
| 2026-05-07 01:57 | 35.79822 | -80.53388 | 29971 ft | 414 kts | 272° |
| 2026-05-07 01:58 | 35.80139 | -80.60473 | 29983 ft | 416 kts | 272° |
| 2026-05-07 01:58 | 35.80455 | -80.67572 | 29972 ft | 413 kts | 272° |
| 2026-05-07 01:59 | 35.80764 | -80.74648 | 29987 ft | 414 kts | 271° |
| 2026-05-07 01:59 | 35.81070 | -80.81737 | 29999 ft | 414 kts | 272° |
| 2026-05-07 02:00 | 35.81358 | -80.88829 | 30005 ft | 414 kts | 271° |
| 2026-05-07 02:00 | 35.81630 | -80.95920 | 30012 ft | 415 kts | 271° |
| 2026-05-07 02:01 | 35.81911 | -81.02983 | 30007 ft | 415 kts | 271° |
| 2026-05-07 02:01 | 35.82199 | -81.10096 | 29993 ft | 416 kts | 271° |
| 2026-05-07 02:02 | 35.82485 | -81.17215 | 29980 ft | 416 kts | 271° |
| 2026-05-07 02:02 | 35.82767 | -81.24328 | 29989 ft | 416 kts | 271° |
| 2026-05-07 02:03 | 35.83045 | -81.31449 | 29995 ft | 416 kts | 271° |
| 2026-05-07 02:03 | 35.83317 | -81.38557 | 29998 ft | 415 kts | 271° |
| 2026-05-07 02:04 | 35.83585 | -81.45668 | 29987 ft | 415 kts | 271° |
| 2026-05-07 02:04 | 35.83849 | -81.52785 | 29991 ft | 416 kts | 271° |
| 2026-05-07 02:05 | 35.84110 | -81.59911 | 30045 ft | 416 kts | 271° |
| 2026-05-07 02:05 | 35.84366 | -81.67030 | 30048 ft | 416 kts | 271° |
| 2026-05-07 02:06 | 35.84618 | -81.74152 | 30042 ft | 416 kts | 271° |
| 2026-05-07 02:06 | 35.84864 | -81.81228 | 30017 ft | 415 kts | 271° |
| 2026-05-07 02:07 | 35.85105 | -81.88344 | 30007 ft | 415 kts | 271° |
| 2026-05-07 02:07 | 35.85424 | -81.99006 | 29976 ft | 415 kts | 270° |
| 2026-05-07 02:08 | 35.85648 | -82.06126 | 29961 ft | 416 kts | 271° |
| 2026-05-07 02:08 | 35.85876 | -82.13275 | 29963 ft | 416 kts | 271° |
| 2026-05-07 02:09 | 35.86063 | -82.19195 | 29964 ft | 415 kts | 271° |
| 2026-05-07 02:09 | 35.86284 | -82.26313 | 29978 ft | 415 kts | 271° |
| 2026-05-07 02:10 | 35.86501 | -82.33440 | 29956 ft | 415 kts | 270° |
| 2026-05-07 02:10 | 35.86713 | -82.40566 | 29963 ft | 416 kts | 270° |
| 2026-05-07 02:11 | 35.86921 | -82.47662 | 29964 ft | 417 kts | 270° |
| 2026-05-07 02:11 | 35.87126 | -82.54806 | 29949 ft | 417 kts | 270° |
| 2026-05-07 02:12 | 35.87429 | -82.61946 | 29958 ft | 417 kts | 273° |
| 2026-05-07 02:12 | 35.88055 | -82.69067 | 29958 ft | 418 kts | 274° |
| 2026-05-07 02:13 | 35.88688 | -82.76204 | 29958 ft | 419 kts | 274° |
| 2026-05-07 02:13 | 35.89282 | -82.83343 | 29962 ft | 417 kts | 272° |
| 2026-05-07 02:14 | 35.89847 | -82.90415 | 29958 ft | 416 kts | 272° |
| 2026-05-07 02:14 | 35.90407 | -82.97518 | 29962 ft | 416 kts | 272° |
| 2026-05-07 02:15 | 35.90963 | -83.04625 | 29960 ft | 416 kts | 272° |
| 2026-05-07 02:15 | 35.91514 | -83.11717 | 29965 ft | 416 kts | 272° |
| 2026-05-07 02:16 | 35.92062 | -83.18803 | 30190 ft | 411 kts | 271° |
| 2026-05-07 02:16 | 35.92332 | -83.22311 | 30425 ft | 410 kts | 271° |
| 2026-05-07 02:16 | 35.92422 | -83.23489 | 30508 ft | 409 kts | 271° |
| 2026-05-07 02:17 | 35.92688 | -83.26975 | 30742 ft | 407 kts | 271° |
| 2026-05-07 02:17 | 35.92952 | -83.30441 | 30981 ft | 405 kts | 271° |
| 2026-05-07 02:17 | 35.93213 | -83.33888 | 31222 ft | 402 kts | 271° |
| 2026-05-07 02:17 | 35.93471 | -83.37312 | 31463 ft | 399 kts | 271° |
| 2026-05-07 02:18 | 35.93727 | -83.40716 | 31705 ft | 397 kts | 271° |
| 2026-05-07 02:18 | 35.93977 | -83.44059 | 31885 ft | 396 kts | 271° |
| 2026-05-07 02:18 | 35.94480 | -83.50824 | 31960 ft | 395 kts | 271° |
| 2026-05-07 02:19 | 35.94976 | -83.57540 | 31969 ft | 391 kts | 270° |
| 2026-05-07 02:19 | 35.95441 | -83.64193 | 31975 ft | 387 kts | 270° |
| 2026-05-07 02:20 | 35.95903 | -83.70833 | 31978 ft | 389 kts | 270° |
| 2026-05-07 02:20 | 35.96375 | -83.77475 | 31980 ft | 388 kts | 270° |
| 2026-05-07 02:21 | 35.96849 | -83.84118 | 31979 ft | 388 kts | 270° |
| 2026-05-07 02:21 | 35.97322 | -83.90773 | 31982 ft | 389 kts | 270° |
| 2026-05-07 02:22 | 35.97791 | -83.97406 | 31979 ft | 387 kts | 270° |
| 2026-05-07 02:22 | 35.98250 | -84.03976 | 31978 ft | 386 kts | 270° |
| 2026-05-07 02:23 | 35.98983 | -84.09488 | 36490 ft | 165 kts | 304° |
| 2026-05-07 02:23 | 35.99983 | -84.10206 | 39289 ft | 172 kts | 298° |
| 2026-05-07 02:23 | 36.01116 | -84.11238 | 36250 ft | 254 kts | 302° |
| 2026-05-07 02:24 | 36.02703 | -84.12855 | 34181 ft | 314 kts | 303° |
| 2026-05-07 02:24 | 36.04323 | -84.14731 | 32710 ft | 320 kts | 297° |
| 2026-05-07 02:24 | 36.05666 | -84.16918 | 32169 ft | 315 kts | 288° |
| 2026-05-07 02:24 | 36.06483 | -84.19396 | 32001 ft | 308 kts | 272° |
| 2026-05-07 02:25 | 36.06543 | -84.22037 | 31734 ft | 314 kts | 259° |
| 2026-05-07 02:25 | 36.06078 | -84.24678 | 31900 ft | 316 kts | 255° |
| 2026-05-07 02:25 | 36.04930 | -84.30029 | 31977 ft | 329 kts | 254° |
| 2026-05-07 02:26 | 36.03733 | -84.35557 | 31979 ft | 342 kts | 255° |
| 2026-05-07 02:26 | 36.02495 | -84.41339 | 31992 ft | 354 kts | 256° |
| 2026-05-07 02:27 | 36.01751 | -84.47477 | 31994 ft | 369 kts | 263° |
| 2026-05-07 02:27 | 36.01735 | -84.53968 | 31998 ft | 385 kts | 268° |
| 2026-05-07 02:28 | 36.02059 | -84.60585 | 31998 ft | 386 kts | 269° |
| 2026-05-07 02:28 | 36.02450 | -84.67178 | 32009 ft | 384 kts | 269° |
| 2026-05-07 02:29 | 36.02858 | -84.73776 | 31998 ft | 385 kts | 269° |
| 2026-05-07 02:29 | 36.03273 | -84.80379 | 32000 ft | 386 kts | 269° |
| 2026-05-07 02:30 | 36.03687 | -84.86988 | 32002 ft | 386 kts | 269° |
| 2026-05-07 02:30 | 36.04100 | -84.93601 | 32021 ft | 386 kts | 269° |
| 2026-05-07 02:31 | 36.04506 | -85.00169 | 32013 ft | 385 kts | 269° |
| 2026-05-07 02:31 | 36.04911 | -85.06781 | 32028 ft | 386 kts | 269° |
| 2026-05-07 02:32 | 36.05312 | -85.13392 | 32018 ft | 386 kts | 269° |
| 2026-05-07 02:32 | 36.05709 | -85.19994 | 32019 ft | 385 kts | 269° |
| 2026-05-07 02:33 | 36.06103 | -85.26608 | 32020 ft | 385 kts | 269° |
| 2026-05-07 02:33 | 36.06493 | -85.33217 | 32030 ft | 385 kts | 269° |
| 2026-05-07 02:34 | 36.06876 | -85.39776 | 32034 ft | 384 kts | 269° |
| 2026-05-07 02:34 | 36.07258 | -85.46374 | 32038 ft | 386 kts | 269° |
| 2026-05-07 02:35 | 36.07638 | -85.53007 | 32036 ft | 386 kts | 269° |
| 2026-05-07 02:35 | 36.08015 | -85.59641 | 32036 ft | 386 kts | 269° |
| 2026-05-07 02:36 | 36.08376 | -85.66261 | 32036 ft | 386 kts | 269° |
| 2026-05-07 02:36 | 36.08719 | -85.72882 | 32034 ft | 386 kts | 269° |
| 2026-05-07 02:37 | 36.09073 | -85.79506 | 32035 ft | 386 kts | 269° |
| 2026-05-07 02:37 | 36.09432 | -85.86122 | 32033 ft | 386 kts | 269° |
| 2026-05-07 02:38 | 36.09789 | -85.92740 | 32039 ft | 386 kts | 269° |
| 2026-05-07 02:38 | 36.10141 | -85.99357 | 32041 ft | 386 kts | 268° |
| 2026-05-07 02:39 | 36.10491 | -86.05973 | 32040 ft | 386 kts | 268° |
| 2026-05-07 02:39 | 36.10838 | -86.12603 | 32040 ft | 386 kts | 268° |
| 2026-05-07 02:40 | 36.11180 | -86.19189 | 32048 ft | 386 kts | 268° |
| 2026-05-07 02:40 | 36.11519 | -86.25824 | 32045 ft | 386 kts | 268° |
| 2026-05-07 02:41 | 36.11855 | -86.32447 | 32046 ft | 386 kts | 268° |
| 2026-05-07 02:41 | 36.12187 | -86.39073 | 32047 ft | 386 kts | 268° |
| 2026-05-07 02:42 | 36.12515 | -86.45700 | 32045 ft | 386 kts | 268° |
| 2026-05-07 02:42 | 36.12840 | -86.52325 | 32045 ft | 386 kts | 268° |
| 2026-05-07 02:43 | 36.13161 | -86.58959 | 32060 ft | 386 kts | 268° |
| 2026-05-07 02:43 | 36.13478 | -86.65583 | 32055 ft | 385 kts | 268° |
| 2026-05-07 02:44 | 36.13687 | -86.72192 | 32053 ft | 384 kts | 265° |
| 2026-05-07 02:44 | 36.13661 | -86.78751 | 32055 ft | 383 kts | 265° |
| 2026-05-07 02:45 | 36.13603 | -86.85342 | 32028 ft | 384 kts | 265° |
| 2026-05-07 02:45 | 36.13552 | -86.92011 | 32026 ft | 391 kts | 265° |
| 2026-05-07 02:46 | 36.13506 | -86.98753 | 32031 ft | 391 kts | 265° |
| 2026-05-07 02:46 | 36.13461 | -87.05455 | 32037 ft | 388 kts | 265° |
| 2026-05-07 02:47 | 36.13409 | -87.12158 | 32036 ft | 389 kts | 264° |
| 2026-05-07 02:47 | 36.13355 | -87.18807 | 32061 ft | 389 kts | 265° |
| 2026-05-07 02:48 | 36.13296 | -87.25497 | 32056 ft | 389 kts | 264° |
| 2026-05-07 02:48 | 36.13234 | -87.32196 | 32055 ft | 389 kts | 264° |
| 2026-05-07 02:49 | 36.13168 | -87.38872 | 32064 ft | 388 kts | 264° |
| 2026-05-07 02:49 | 36.13099 | -87.45552 | 32069 ft | 388 kts | 264° |
| 2026-05-07 02:50 | 36.13026 | -87.52173 | 32071 ft | 387 kts | 264° |
| 2026-05-07 02:50 | 36.12949 | -87.58836 | 32067 ft | 387 kts | 264° |
| 2026-05-07 02:51 | 36.12868 | -87.65495 | 32073 ft | 387 kts | 264° |
| 2026-05-07 02:51 | 36.12783 | -87.72156 | 32078 ft | 387 kts | 264° |
| 2026-05-07 02:52 | 36.12671 | -87.78819 | 32073 ft | 387 kts | 264° |
| 2026-05-07 02:52 | 36.12561 | -87.85473 | 32065 ft | 387 kts | 264° |
| 2026-05-07 02:53 | 36.12520 | -87.92135 | 32075 ft | 388 kts | 265° |
| 2026-05-07 02:53 | 36.12627 | -87.98816 | 32075 ft | 388 kts | 266° |
| 2026-05-07 02:54 | 36.12753 | -88.05455 | 32068 ft | 388 kts | 266° |
| 2026-05-07 02:54 | 36.12873 | -88.12136 | 32076 ft | 388 kts | 266° |
| 2026-05-07 02:55 | 36.12986 | -88.18793 | 32058 ft | 386 kts | 266° |
| 2026-05-07 02:55 | 36.13093 | -88.25440 | 32054 ft | 387 kts | 266° |
| 2026-05-07 02:56 | 36.13197 | -88.32094 | 32049 ft | 387 kts | 266° |
| 2026-05-07 02:56 | 36.13280 | -88.37623 | 32045 ft | 387 kts | 265° |
| 2026-05-07 02:57 | 36.13376 | -88.44274 | 32046 ft | 386 kts | 265° |
| 2026-05-07 02:57 | 36.13469 | -88.50923 | 32051 ft | 386 kts | 266° |
| 2026-05-07 02:58 | 36.13559 | -88.57560 | 32047 ft | 386 kts | 265° |
| 2026-05-07 02:58 | 36.13644 | -88.64199 | 32048 ft | 386 kts | 265° |
| 2026-05-07 02:59 | 36.13725 | -88.70797 | 32052 ft | 386 kts | 265° |
| 2026-05-07 02:59 | 36.13804 | -88.77436 | 32055 ft | 386 kts | 265° |
| 2026-05-07 03:00 | 36.13878 | -88.84072 | 32053 ft | 385 kts | 265° |
| 2026-05-07 03:00 | 36.13948 | -88.90703 | 32054 ft | 386 kts | 265° |
| 2026-05-07 03:01 | 36.13992 | -88.97337 | 32058 ft | 386 kts | 265° |
| 2026-05-07 03:01 | 36.14036 | -89.03977 | 32056 ft | 386 kts | 265° |
| 2026-05-07 03:02 | 36.14089 | -89.10622 | 32062 ft | 386 kts | 265° |
| 2026-05-07 03:02 | 36.14144 | -89.17265 | 32061 ft | 386 kts | 265° |
| 2026-05-07 03:03 | 36.14197 | -89.23909 | 32091 ft | 386 kts | 265° |
| 2026-05-07 03:03 | 36.14245 | -89.30502 | 32069 ft | 385 kts | 265° |
| 2026-05-07 03:04 | 36.14290 | -89.37138 | 32067 ft | 385 kts | 265° |
| 2026-05-07 03:04 | 36.14331 | -89.43776 | 32072 ft | 385 kts | 265° |
| 2026-05-07 03:05 | 36.14368 | -89.50409 | 32072 ft | 385 kts | 265° |
| 2026-05-07 03:05 | 36.14402 | -89.57040 | 32075 ft | 385 kts | 265° |
| 2026-05-07 03:06 | 36.14433 | -89.63669 | 32072 ft | 385 kts | 265° |
| 2026-05-07 03:06 | 36.14459 | -89.70293 | 32072 ft | 385 kts | 265° |
| 2026-05-07 03:07 | 36.14482 | -89.76877 | 32074 ft | 385 kts | 265° |
| 2026-05-07 03:07 | 36.14501 | -89.83515 | 32074 ft | 385 kts | 265° |
| 2026-05-07 03:08 | 36.14517 | -89.90142 | 32074 ft | 385 kts | 265° |
| 2026-05-07 03:08 | 36.14521 | -89.96771 | 32074 ft | 385 kts | 265° |
| 2026-05-07 03:09 | 36.14503 | -90.03397 | 32074 ft | 384 kts | 265° |
| 2026-05-07 03:09 | 36.14495 | -90.09990 | 32073 ft | 383 kts | 265° |
| 2026-05-07 03:10 | 36.14493 | -90.16547 | 32073 ft | 383 kts | 265° |
| 2026-05-07 03:10 | 36.14489 | -90.23152 | 32073 ft | 383 kts | 265° |
| 2026-05-07 03:11 | 36.14483 | -90.29754 | 32073 ft | 383 kts | 265° |
| 2026-05-07 03:11 | 36.14473 | -90.36345 | 32070 ft | 383 kts | 265° |
| 2026-05-07 03:12 | 36.14460 | -90.42942 | 32072 ft | 382 kts | 265° |
| 2026-05-07 03:12 | 36.14443 | -90.49459 | 32070 ft | 381 kts | 265° |
| 2026-05-07 03:13 | 36.14422 | -90.56023 | 32072 ft | 381 kts | 265° |
| 2026-05-07 03:13 | 36.14398 | -90.62577 | 32079 ft | 381 kts | 265° |
| 2026-05-07 03:14 | 36.14370 | -90.69136 | 32083 ft | 381 kts | 265° |
| 2026-05-07 03:15 | 36.14321 | -90.78971 | 32092 ft | 380 kts | 265° |
| 2026-05-07 03:15 | 36.14286 | -90.85443 | 32096 ft | 377 kts | 265° |
| 2026-05-07 03:16 | 36.14273 | -90.91934 | 32098 ft | 378 kts | 266° |
| 2026-05-07 03:16 | 36.14422 | -90.98444 | 32087 ft | 379 kts | 267° |
| 2026-05-07 03:17 | 36.14623 | -91.04957 | 32078 ft | 379 kts | 267° |
| 2026-05-07 03:17 | 36.14826 | -91.11486 | 32078 ft | 379 kts | 267° |
| 2026-05-07 03:18 | 36.15022 | -91.17990 | 32087 ft | 378 kts | 267° |
| 2026-05-07 03:18 | 36.15213 | -91.24459 | 32085 ft | 378 kts | 267° |
| 2026-05-07 03:19 | 36.15401 | -91.30958 | 32079 ft | 378 kts | 267° |
| 2026-05-07 03:19 | 36.15584 | -91.37430 | 32082 ft | 378 kts | 267° |
| 2026-05-07 03:20 | 36.15765 | -91.43932 | 32081 ft | 378 kts | 267° |